Terminal Aerodrome Forecast
Issued by NWS Hastings, NE

Home | Current Version | Previous Version | Text Only | Print | Product List | Glossary On
Versions: 1 2 3 4 5 6 7 8 9 10 11 12 13 14
000
FTUS45 KGID 191900 AAA
TAFEAR
TAF AMD
KEAR 191900Z 1919/2018 17014KT P6SM FEW250
     FM200200 16011KT P6SM FEW250 WS020/19040KT
     FM201400 17017G24KT P6SM SCT250 WS020/19040KT=

USA.gov is the U.S. government's official web portal to all federal, state and local government web resources and services.